Time;durP1;ratioP1;P1;durP2;ratioP2;P2;SDS_P1;SDS_P2;PMS_P1;PMS_P2;Temp;Humidity;BMP_temperature;BMP_pressure;BME280_temperature;BME280_humidity;BME280_pressure;Samples;Min_cycle;Max_cycle;Signal;HPM_P1;HPM_P2
2022/10/24 00:01:11;;;;;;;32.60;24.60;;;;;;;9.28;82.36;101168.98;1720689;80;21060;-84
2022/10/24 00:03:41;;;;;;;32.75;24.65;;;;;;;9.30;82.34;101167.73;1759329;80;21031;-84
2022/10/24 00:06:08;;;;;;;34.33;24.67;;;;;;;9.31;82.38;101164.28;1754469;80;23376;-85
2022/10/24 00:08:35;;;;;;;28.60;23.73;;;;;;;9.29;82.31;101168.55;1744100;81;21116;-84
2022/10/24 00:11:04;;;;;;;32.73;24.30;;;;;;;9.31;82.31;101169.53;1752302;80;21081;-84
2022/10/24 00:13:32;;;;;;;35.13;23.20;;;;;;;9.28;82.30;101171.61;1731064;81;21124;-84
2022/10/24 00:16:00;;;;;;;28.87;23.27;;;;;;;9.26;82.31;101162.78;1767325;79;21056;-84
2022/10/24 00:18:27;;;;;;;37.13;23.57;;;;;;;9.24;82.28;101163.58;1770091;80;21759;-84
2022/10/24 00:20:53;;;;;;;29.67;24.02;;;;;;;9.22;82.33;101170.51;1758823;80;21566;-84
2022/10/24 00:23:20;;;;;;;32.30;24.63;;;;;;;9.19;82.27;101163.38;1723232;81;21058;-84
2022/10/24 00:25:47;;;;;;;31.60;25.05;;;;;;;9.18;82.40;101166.87;1743058;82;21460;-84
2022/10/24 00:28:17;;;;;;;37.42;28.12;;;;;;;9.19;82.62;101164.70;1715995;83;21111;-83
2022/10/24 00:31:06;;;;;;;41.08;31.17;;;;;;;9.23;82.78;101159.14;1749396;81;21737;-85
2022/10/24 00:33:33;;;;;;;39.23;30.37;;;;;;;9.29;82.90;101158.97;1743885;81;21113;-85
2022/10/24 00:36:08;;;;;;;28.52;24.27;;;;;;;9.34;83.03;101153.44;1772996;80;21100;-85
2022/10/24 00:38:33;;;;;;;29.30;21.35;;;;;;;9.43;83.15;101145.43;1761014;80;21068;-85
2022/10/24 00:41:00;;;;;;;34.23;23.95;;;;;;;9.51;83.28;101138.70;1752865;80;21064;-84
2022/10/24 00:43:30;;;;;;;37.38;26.65;;;;;;;9.58;83.34;101138.09;1729718;81;21748;-85
2022/10/24 00:45:59;;;;;;;32.13;22.37;;;;;;;9.67;83.56;101130.95;1711921;82;22133;-85
2022/10/24 00:48:39;;;;;;;26.73;20.50;;;;;;;9.75;83.66;101128.16;1720944;81;21116;-84
2022/10/24 00:51:26;;;;;;;38.38;25.70;;;;;;;9.80;83.70;101126.98;1711684;81;22130;-84
2022/10/24 00:54:05;;;;;;;81.53;41.10;;;;;;;9.88;83.99;101126.84;1716689;81;22412;-84
2022/10/24 00:56:35;;;;;;;65.35;28.95;;;;;;;9.92;84.01;101127.41;1699760;81;22031;-84
2022/10/24 00:59:04;;;;;;;51.65;25.00;;;;;;;9.96;84.03;101120.09;1705816;83;20975;-84
2022/10/24 01:01:32;;;;;;;41.28;22.42;;;;;;;9.99;84.10;101111.44;1714852;81;21051;-84
2022/10/24 01:03:59;;;;;;;58.90;27.62;;;;;;;10.03;84.14;101114.20;1666085;83;20978;-84
2022/10/24 01:06:40;;;;;;;44.35;23.70;;;;;;;10.06;84.19;101118.66;1710094;82;20986;-84
2022/10/24 01:09:18;;;;;;;45.70;23.30;;;;;;;10.07;84.26;101112.57;1720630;81;21732;-84
2022/10/24 01:12:05;;;;;;;51.33;23.52;;;;;;;10.13;84.44;101114.08;1720787;81;20996;-84
2022/10/24 01:14:55;;;;;;;43.98;21.95;;;;;;;10.15;84.28;101114.13;1685556;82;21435;-84
2022/10/24 01:17:50;;;;;;;50.60;20.80;;;;;;;10.12;84.28;101106.62;1702181;83;21007;-85
2022/10/24 01:20:25;;;;;;;45.95;22.70;;;;;;;10.15;84.35;101105.81;1722212;82;21423;-84
2022/10/24 01:23:29;;;;;;;46.80;22.05;;;;;;;10.15;84.23;101100.98;1699484;83;21734;-84
2022/10/24 01:26:22;;;;;;;40.48;23.80;;;;;;;10.12;84.29;101096.09;1663524;82;20996;-84
2022/10/24 01:28:54;;;;;;;40.03;22.55;;;;;;;10.14;84.37;101092.63;1695086;83;21444;-84
2022/10/24 01:31:34;;;;;;;36.35;23.00;;;;;;;10.12;84.36;101093.47;1702307;82;20993;-85
2022/10/24 01:34:09;;;;;;;45.67;22.35;;;;;;;10.14;84.40;101096.58;1682817;83;20917;-84
2022/10/24 01:36:41;;;;;;;34.40;22.37;;;;;;;10.18;84.56;101087.94;1696445;83;22478;-85
2022/10/24 01:39:12;;;;;;;31.95;22.20;;;;;;;10.21;84.60;101088.93;1693161;83;21034;-84
2022/10/24 01:41:39;;;;;;;37.63;21.77;;;;;;;10.23;84.67;101071.45;1686258;83;21058;-85
2022/10/24 01:44:15;;;;;;;39.10;21.93;;;;;;;10.26;84.57;101061.44;1705867;83;20994;-85
2022/10/24 01:46:50;;;;;;;35.65;23.00;;;;;;;10.29;84.61;101065.06;1700598;83;21005;-85
2022/10/24 01:49:17;;;;;;;;;;;;;;;10.30;84.68;101059.00;1714105;82;21715;-84
2022/10/24 01:51:51;;;;;;;35.17;21.45;;;;;;;10.38;84.70;101065.81;1709984;83;20533;-85
2022/10/24 01:54:21;;;;;;;32.98;23.05;;;;;;;10.42;84.66;101058.91;1707093;83;25725;-84
2022/10/24 01:56:47;;;;;;;31.52;22.87;;;;;;;10.47;84.81;101054.25;1706353;83;21246;-84
2022/10/24 01:59:32;;;;;;;43.60;22.40;;;;;;;10.52;84.75;101041.65;1707524;82;21075;-84
2022/10/24 02:02:04;;;;;;;30.75;22.32;;;;;;;10.51;84.72;101036.81;1699555;82;21773;-85
2022/10/24 02:04:31;;;;;;;29.48;22.67;;;;;;;10.58;84.62;101051.91;1698716;82;20978;-85
2022/10/24 02:07:00;;;;;;;29.23;22.30;;;;;;;10.61;84.70;101055.09;1695512;83;21050;-85
2022/10/24 02:09:27;;;;;;;31.87;23.65;;;;;;;10.65;84.75;101044.67;1674272;84;21173;-84
2022/10/24 02:11:54;;;;;;;31.97;23.25;;;;;;;10.71;84.74;101038.70;1684510;83;21727;-85
2022/10/24 02:14:26;;;;;;;32.65;22.87;;;;;;;10.75;84.69;101032.66;1675917;83;22477;-84
2022/10/24 02:16:53;;;;;;;34.67;22.60;;;;;;;10.79;84.65;101027.98;1694408;82;21642;-85
2022/10/24 02:19:20;;;;;;;31.57;23.55;;;;;;;10.81;84.54;101022.73;1704310;82;22235;-85
2022/10/24 02:22:23;;;;;;;27.48;22.67;;;;;;;10.79;84.42;101013.50;1684633;83;21110;-84
2022/10/24 02:25:12;;;;;;;44.33;26.15;;;;;;;10.79;84.36;101009.55;1679899;84;21117;-84
2022/10/24 02:27:48;;;;;;;33.33;24.98;;;;;;;10.83;84.40;101014.45;1699643;84;21896;-84
2022/10/24 02:30:23;;;;;;;37.73;24.43;;;;;;;10.80;84.28;101008.68;1699515;84;21093;-84
2022/10/24 02:32:53;;;;;;;37.20;26.75;;;;;;;10.79;84.31;101010.87;1677750;84;21095;-84
2022/10/24 02:35:26;;;;;;;36.53;26.12;;;;;;;10.78;84.18;101006.44;1668404;84;21062;-84
2022/10/24 02:37:56;;;;;;;42.08;27.77;;;;;;;10.75;84.24;100998.87;1697995;83;21094;-85
2022/10/24 02:40:25;;;;;;;45.28;27.65;;;;;;;10.76;84.29;101011.20;1682122;83;21069;-84
2022/10/24 02:42:54;;;;;;;50.20;28.87;;;;;;;10.75;84.35;101018.19;1699368;82;21129;-84
2022/10/24 02:45:21;;;;;;;51.45;30.35;;;;;;;10.80;84.46;101022.28;1701344;84;21019;-84
2022/10/24 02:47:48;;;;;;;50.43;30.05;;;;;;;10.82;84.50;101017.95;1688497;82;21406;-84
2022/10/24 02:50:15;;;;;;;54.13;30.05;;;;;;;10.81;84.50;101010.88;1680100;83;21468;-85
2022/10/24 02:52:42;;;;;;;54.50;28.92;;;;;;;10.82;84.61;101009.61;1683415;84;21728;-84
2022/10/24 02:55:10;;;;;;;47.55;28.50;;;;;;;10.85;84.68;101002.25;1707342;83;21021;-84
2022/10/24 02:57:39;;;;;;;39.15;28.20;;;;;;;10.84;84.57;101001.77;1718905;82;21050;-84
2022/10/24 03:00:07;;;;;;;45.43;28.38;;;;;;;10.83;84.49;101005.23;1709870;83;20974;-85
2022/10/24 03:02:34;;;;;;;36.50;27.42;;;;;;;10.84;84.57;101006.59;1710886;82;21574;-84
2022/10/24 03:05:01;;;;;;;34.63;27.30;;;;;;;10.85;84.69;100998.30;1709512;83;21736;-84
2022/10/24 03:07:28;;;;;;;34.38;26.90;;;;;;;10.88;84.71;101004.51;1709411;82;21168;-84
2022/10/24 03:09:55;;;;;;;41.18;26.65;;;;;;;10.90;84.66;101005.88;1709877;83;21062;-84
2022/10/24 03:12:23;;;;;;;51.08;27.65;;;;;;;10.91;84.65;101006.36;1709413;82;21061;-84
2022/10/24 03:14:49;;;;;;;54.08;28.62;;;;;;;10.89;84.61;101002.36;1709592;82;21076;-84
2022/10/24 03:17:20;;;;;;;49.03;29.35;;;;;;;10.89;84.60;100997.52;1698193;82;21563;-84
2022/10/24 03:19:47;;;;;;;52.50;30.85;;;;;;;10.86;84.55;100994.80;1736466;81;21043;-84
2022/10/24 03:22:15;;;;;;;49.40;29.05;;;;;;;10.84;84.65;100985.97;1745346;81;21056;-84
2022/10/24 03:24:42;;;;;;;44.80;28.77;;;;;;;10.84;84.63;100980.27;1751678;80;21064;-84
2022/10/24 03:27:09;;;;;;;43.45;29.45;;;;;;;10.82;84.74;100986.34;1730782;80;22291;-84
2022/10/24 03:29:38;;;;;;;49.23;30.32;;;;;;;10.78;84.62;100982.73;1752157;80;21787;-84
2022/10/24 03:32:05;;;;;;;52.83;29.98;;;;;;;10.77;84.92;100976.98;1754965;80;21060;-87
2022/10/24 03:34:35;;;;;;;42.23;29.75;;;;;;;10.77;84.87;100973.03;1734189;81;21080;-84
2022/10/24 03:37:02;;;;;;;42.62;29.40;;;;;;;10.77;85.03;100969.09;1740031;81;21577;-84
2022/10/24 03:39:29;;;;;;;38.63;29.27;;;;;;;10.79;85.08;100958.60;1750518;81;21919;-84
2022/10/24 03:41:56;;;;;;;43.38;28.65;;;;;;;10.82;85.18;100965.28;1740954;81;22491;-84
2022/10/24 03:44:23;;;;;;;36.03;28.83;;;;;;;10.85;85.20;100957.48;1756053;80;21243;-84
2022/10/24 03:46:56;;;;;;;47.25;28.02;;;;;;;10.85;85.17;100950.89;1753436;80;21075;-84
2022/10/24 03:49:22;;;;;;;38.60;29.60;;;;;;;10.84;85.19;100951.30;1755747;80;21063;-82
2022/10/24 03:51:50;;;;;;;45.30;28.32;;;;;;;10.84;85.22;100946.47;1753100;80;20983;-81
2022/10/24 03:54:16;;;;;;;46.42;29.12;;;;;;;10.85;85.22;100947.83;1753156;80;22849;-81
2022/10/24 03:56:46;;;;;;;52.60;28.25;;;;;;;10.84;85.30;100944.72;1734497;80;21074;-81
2022/10/24 03:59:15;;;;;;;52.35;29.57;;;;;;;10.86;85.40;100932.91;1738891;81;21059;-81
2022/10/24 04:01:42;;;;;;;42.15;30.30;;;;;;;10.87;85.38;100929.01;1752018;81;21067;-81
2022/10/24 04:04:09;;;;;;;46.88;31.10;;;;;;;10.88;85.44;100933.41;1751883;81;21075;-81
2022/10/24 04:06:36;;;;;;;52.20;31.45;;;;;;;10.88;85.52;100933.41;1752084;80;21762;-81
2022/10/24 04:09:03;;;;;;;52.33;32.73;;;;;;;10.91;85.51;100940.52;1751407;81;21075;-81
2022/10/24 04:11:30;;;;;;;65.22;32.40;;;;;;;10.92;85.48;100952.81;1751875;81;21636;-81
2022/10/24 04:14:01;;;;;;;48.55;31.23;;;;;;;10.93;85.57;100957.69;1752906;80;21049;-78
2022/10/24 04:16:26;;;;;;;44.90;30.90;;;;;;;10.94;85.54;100954.18;1752279;81;21601;-77
2022/10/24 04:18:58;;;;;;;54.93;31.85;;;;;;;10.92;85.55;100958.08;1755647;80;21750;-78
2022/10/24 04:21:25;;;;;;;57.13;33.18;;;;;;;10.94;85.67;100955.50;1748125;80;21102;-77
2022/10/24 04:24:01;;;;;;;53.02;33.90;;;;;;;10.96;85.75;100956.42;1749146;81;21055;-78
2022/10/24 04:26:28;;;;;;;61.55;36.65;;;;;;;10.97;85.68;100953.84;1770890;80;21100;-78
2022/10/24 04:28:56;;;;;;;57.08;36.45;;;;;;;10.98;85.74;100941.55;1741312;80;21060;-78
2022/10/24 04:31:36;;;;;;;65.52;37.25;;;;;;;10.95;85.59;100946.33;1748592;80;21778;-96
2022/10/24 04:34:06;;;;;;;72.05;39.60;;;;;;;10.92;85.73;100940.97;1749913;81;21115;-91
2022/10/24 04:39:44;;;;;;;62.58;36.23;;;;;;;10.97;85.89;100945.94;1743864;80;21085;-84
2022/10/24 04:42:15;;;;;;;71.70;37.23;;;;;;;10.98;85.91;100930.61;1751193;80;21033;-83
2022/10/24 04:44:42;;;;;;;55.80;34.73;;;;;;;10.96;85.88;100923.10;1737518;81;22638;-83
2022/10/24 04:47:09;;;;;;;70.12;35.80;;;;;;;10.96;85.95;100915.60;1703350;81;21511;-83
2022/10/24 04:49:36;;;;;;;55.45;34.80;;;;;;;10.96;86.00;100915.60;1739524;80;22129;-83
2022/10/24 04:52:03;;;;;;;53.28;34.30;;;;;;;10.98;86.08;100926.66;1755666;80;21505;-83
2022/10/24 04:54:30;;;;;;;55.98;34.60;;;;;;;10.98;86.05;100922.72;1753474;81;21149;-83
2022/10/24 04:56:57;;;;;;;56.48;37.42;;;;;;;11.00;86.16;100917.06;1767051;80;22582;-83
2022/10/24 04:59:24;;;;;;;61.45;38.08;;;;;;;11.03;86.15;100912.28;1760664;80;21092;-83
2022/10/24 05:01:51;;;;;;;56.28;37.73;;;;;;;11.07;86.23;100907.55;1748923;80;21076;-83
2022/10/24 05:04:18;;;;;;;48.95;33.35;;;;;;;11.08;86.17;100911.55;1752397;81;21558;-83
2022/10/24 05:06:45;;;;;;;54.42;31.12;;;;;;;11.08;86.11;100912.86;1765163;80;21088;-82
2022/10/24 05:09:13;;;;;;;50.50;28.85;;;;;;;11.11;86.17;100916.42;1751662;81;21930;-82
2022/10/24 05:11:40;;;;;;;50.33;27.67;;;;;;;11.11;86.07;100924.33;1739238;80;21065;-83
2022/10/24 05:14:11;;;;;;;51.37;28.57;;;;;;;11.07;85.98;100929.94;1748510;80;21274;-83
2022/10/24 05:16:38;;;;;;;61.75;26.85;;;;;;;11.07;85.98;100932.17;1730153;80;21084;-83
2022/10/24 05:19:05;;;;;;;49.58;28.02;;;;;;;11.06;86.05;100933.45;1747882;80;21602;-83
2022/10/24 05:21:34;;;;;;;52.20;30.27;;;;;;;11.06;86.02;100934.77;1752833;81;21068;-83
2022/10/24 05:24:00;;;;;;;58.33;29.92;;;;;;;11.05;86.09;100940.44;1751621;81;21055;-83
2022/10/24 05:26:28;;;;;;;59.48;31.52;;;;;;;11.07;86.22;100941.39;1751863;81;21105;-83
2022/10/24 05:28:55;;;;;;;62.38;32.15;;;;;;;11.08;86.17;100935.69;1751907;81;21066;-83
2022/10/24 05:31:23;;;;;;;51.88;32.25;;;;;;;11.08;86.13;100933.94;1752154;81;21134;-83
2022/10/24 05:33:52;;;;;;;56.88;32.83;;;;;;;11.10;86.13;100943.20;1724237;83;21753;-83
2022/10/24 05:36:19;;;;;;;40.08;31.75;;;;;;;11.08;86.01;100945.79;1724189;83;21064;-83
2022/10/24 05:38:45;;;;;;;60.20;33.02;;;;;;;11.09;86.18;100951.94;1724165;83;21044;-83
2022/10/24 05:41:12;;;;;;;60.23;36.00;;;;;;;11.09;86.03;100954.17;1724208;83;21052;-83
2022/10/24 05:43:41;;;;;;;61.30;33.75;;;;;;;11.13;86.24;100942.37;1723628;82;21081;-83
2022/10/24 05:46:10;;;;;;;46.50;32.13;;;;;;;11.17;86.19;100950.42;1723372;82;21867;-83
2022/10/24 05:48:37;;;;;;;50.12;33.28;;;;;;;11.20;86.20;100949.59;1722386;82;21149;-83
2022/10/24 05:51:04;;;;;;;52.85;32.88;;;;;;;11.21;86.15;100945.69;1723446;82;21054;-83
2022/10/24 05:53:31;;;;;;;52.20;32.83;;;;;;;11.26;86.21;100940.12;1723233;83;21102;-83
2022/10/24 05:55:58;;;;;;;52.08;34.05;;;;;;;11.29;86.17;100940.61;1735697;82;21064;-83
2022/10/24 05:58:26;;;;;;;55.83;35.38;;;;;;;11.33;86.21;100937.19;1737725;81;21778;-83
2022/10/24 06:00:55;;;;;;;51.77;35.30;;;;;;;11.37;86.14;100936.41;1737646;81;21092;-83
2022/10/24 06:03:24;;;;;;;54.98;34.70;;;;;;;11.39;86.03;100940.41;1750394;81;21062;-83
2022/10/24 06:05:53;;;;;;;52.33;35.78;;;;;;;11.37;85.88;100940.36;1751659;81;21051;-83
2022/10/24 06:08:19;;;;;;;56.05;36.10;;;;;;;11.34;85.88;100931.52;1753441;81;21106;-83
2022/10/24 06:10:47;;;;;;;50.58;35.73;;;;;;;11.36;86.04;100927.17;1753546;81;21731;-83
2022/10/24 06:13:15;;;;;;;56.23;38.30;;;;;;;11.38;86.01;100921.08;1753502;81;21031;-83
2022/10/24 06:15:43;;;;;;;53.75;38.05;;;;;;;11.35;85.93;100918.34;1753587;81;21090;-83
2022/10/24 06:18:11;;;;;;;53.92;37.00;;;;;;;11.37;86.07;100914.44;1731593;81;21066;-83
2022/10/24 06:20:38;;;;;;;50.48;36.10;;;;;;;11.40;86.18;100916.73;1753519;81;21525;-83
2022/10/24 06:23:05;;;;;;;54.40;39.40;;;;;;;11.43;86.14;100922.48;1739710;81;22962;-84
2022/10/24 06:25:32;;;;;;;60.38;37.90;;;;;;;11.45;86.09;100918.17;1737744;81;21052;-83
2022/10/24 06:27:59;;;;;;;54.50;37.23;;;;;;;11.47;86.14;100910.75;1739613;81;21132;-84
2022/10/24 06:30:26;;;;;;;50.63;36.13;;;;;;;11.51;86.12;100905.13;1753712;81;21056;-83
2022/10/24 06:32:53;;;;;;;50.17;37.67;;;;;;;11.51;85.99;100901.61;1753528;81;21067;-83
2022/10/24 06:35:19;;;;;;;50.55;36.75;;;;;;;11.52;85.97;100898.10;1753512;81;23315;-83
2022/10/24 06:37:46;;;;;;;48.45;36.80;;;;;;;11.54;86.03;100892.44;1753434;81;21464;-83
2022/10/24 06:40:13;;;;;;;50.00;38.48;;;;;;;11.56;86.02;100890.32;1752999;81;21064;-83
2022/10/24 06:42:40;;;;;;;52.08;39.45;;;;;;;11.59;86.04;100881.58;1753272;81;21037;-83
2022/10/24 06:45:08;;;;;;;52.30;39.30;;;;;;;11.60;86.04;100876.75;1772426;80;21099;-83
2022/10/24 06:47:35;;;;;;;49.48;38.05;;;;;;;11.64;86.07;100876.88;1775171;80;21792;-83
2022/10/24 06:50:06;;;;;;;57.30;40.08;;;;;;;11.67;86.02;100869.45;1775085;80;21317;-84
2022/10/24 06:52:32;;;;;;;55.63;39.80;;;;;;;11.70;86.03;100866.02;1775263;80;21046;-83
2022/10/24 06:54:59;;;;;;;53.52;40.40;;;;;;;11.71;85.89;100873.05;1775092;80;21126;-83
2022/10/24 06:57:26;;;;;;;58.63;39.40;;;;;;;11.73;86.00;100873.97;1775169;80;21019;-83
2022/10/24 06:59:53;;;;;;;57.53;41.85;;;;;;;11.78;86.05;100869.70;1775402;79;21758;-83
2022/10/24 07:02:20;;;;;;;64.32;44.18;;;;;;;11.83;86.07;100872.89;1775397;79;21051;-83
2022/10/24 07:04:47;;;;;;;62.83;43.02;;;;;;;11.87;85.99;100866.82;1775626;80;21049;-83
2022/10/24 07:07:17;;;;;;;59.95;43.50;;;;;;;11.89;85.91;100866.86;1775427;80;21412;-83
2022/10/24 07:09:43;;;;;;;64.85;44.95;;;;;;;11.95;85.95;100875.37;1774454;80;21069;-83
2022/10/24 07:12:11;;;;;;;67.32;44.95;;;;;;;11.99;85.96;100882.08;1775716;80;22515;-83
2022/10/24 07:14:38;;;;;;;65.28;45.95;;;;;;;12.06;86.02;100885.72;1775376;80;21041;-83
2022/10/24 07:17:05;;;;;;;59.23;44.35;;;;;;;12.13;85.93;100887.63;1775352;80;21126;-83
2022/10/24 07:19:31;;;;;;;64.80;44.58;;;;;;;12.16;85.78;100890.34;1775036;80;21054;-83
2022/10/24 07:21:58;;;;;;;61.30;43.95;;;;;;;12.19;85.76;100895.66;1770996;80;21063;-83
2022/10/24 07:24:25;;;;;;;59.00;44.38;;;;;;;12.25;85.76;100893.58;1764423;80;21794;-83
2022/10/24 07:26:53;;;;;;;60.73;44.38;;;;;;;12.27;85.73;100893.62;1764751;79;21039;-83
2022/10/24 07:29:19;;;;;;;60.52;43.95;;;;;;;12.33;85.72;100899.02;1762548;79;21108;-83
2022/10/24 07:31:47;;;;;;;62.67;44.08;;;;;;;12.37;85.71;100900.84;1725686;82;21132;-83
2022/10/24 07:34:14;;;;;;;63.45;45.52;;;;;;;12.41;85.57;100914.59;1696840;83;21057;-83
2022/10/24 07:36:41;;;;;;;60.70;43.90;;;;;;;12.44;85.67;100911.59;1725543;81;21745;-83
2022/10/24 07:39:07;;;;;;;61.50;45.95;;;;;;;12.50;85.58;100910.83;1725579;83;21029;-83
2022/10/24 07:41:37;;;;;;;57.40;44.25;;;;;;;12.51;85.37;100917.86;1725784;83;21546;-83
2022/10/24 07:44:04;;;;;;;59.98;44.18;;;;;;;12.51;85.41;100919.19;1726198;82;21061;-83
2022/10/24 07:46:30;;;;;;;57.75;43.48;;;;;;;12.54;85.49;100924.54;1725614;83;21065;-83
2022/10/24 07:48:58;;;;;;;59.05;44.15;;;;;;;12.59;85.51;100928.17;1725166;81;21936;-83
2022/10/24 07:51:27;;;;;;;56.90;44.15;;;;;;;12.64;85.37;100926.48;1725211;83;21582;-85
2022/10/24 07:53:53;;;;;;;57.20;43.78;;;;;;;12.64;85.28;100927.80;1725443;83;21121;-86
2022/10/24 07:56:22;;;;;;;56.83;42.13;;;;;;;12.68;85.37;100925.23;1690311;84;21085;-83
2022/10/24 07:58:49;;;;;;;50.58;40.55;;;;;;;12.69;85.15;100919.08;1690704;84;21037;-83
2022/10/24 08:01:18;;;;;;;50.92;40.45;;;;;;;12.71;85.25;100914.73;1662960;84;21715;-83
2022/10/24 08:03:45;;;;;;;51.53;42.17;;;;;;;12.77;85.43;100903.84;1690583;83;21044;-83
2022/10/24 08:06:25;;;;;;;51.75;41.10;;;;;;;12.87;85.45;100909.30;1693267;83;21050;-83
2022/10/24 08:08:52;;;;;;;49.18;39.50;;;;;;;12.95;85.38;100902.38;1775048;80;21057;-84
2022/10/24 08:11:25;;;;;;;45.45;38.15;;;;;;;13.01;85.17;100902.52;1775144;80;21079;-83
2022/10/24 08:13:52;;;;;;;48.85;39.92;;;;;;;13.03;85.13;100907.39;1775702;80;21782;-83
2022/10/24 08:16:20;;;;;;;47.33;37.08;;;;;;;13.08;85.21;100904.38;1775416;80;21049;-83
2022/10/24 08:18:47;;;;;;;46.75;37.95;;;;;;;13.17;85.26;100903.20;1776040;80;21055;-83
2022/10/24 08:21:15;;;;;;;43.95;36.73;;;;;;;13.22;85.02;100900.22;1775320;79;21069;-83
2022/10/24 08:23:44;;;;;;;45.90;37.05;;;;;;;13.25;84.88;100888.83;1775570;80;21050;-83
2022/10/24 08:26:16;;;;;;;42.17;34.80;;;;;;;13.25;84.78;100883.95;1778296;79;21748;-83
2022/10/24 08:28:45;;;;;;;41.30;36.73;;;;;;;13.26;84.73;100877.37;1752361;80;21924;-83
2022/10/24 08:31:15;;;;;;;43.58;35.25;;;;;;;13.31;84.73;100873.53;1751838;80;21076;-84
2022/10/24 08:33:42;;;;;;;38.48;34.10;;;;;;;13.33;84.70;100870.03;1751942;80;21026;-83
2022/10/24 08:36:25;;;;;;;41.88;33.42;;;;;;;13.39;84.79;100872.77;1778021;79;21155;-83
2022/10/24 08:38:52;;;;;;;40.83;32.90;;;;;;;13.45;84.65;100870.64;1778311;80;21688;-83
2022/10/24 08:41:31;;;;;;;37.38;30.72;;;;;;;13.53;84.70;100873.40;1777592;79;21511;-83
2022/10/24 08:43:59;;;;;;;42.33;32.38;;;;;;;13.62;84.71;100886.77;1776034;79;21053;-83
2022/10/24 08:47:06;;;;;;;33.58;29.80;;;;;;;13.70;84.44;100896.12;1765297;79;21089;-83
2022/10/24 08:49:47;;;;;;;37.50;30.75;;;;;;;13.72;84.28;100897.04;1763949;81;21045;-83
2022/10/24 08:52:48;;;;;;;32.80;28.87;;;;;;;13.77;84.26;100878.16;1763824;81;21840;-84
2022/10/24 08:55:21;;;;;;;33.18;28.20;;;;;;;13.82;84.20;100878.24;1758003;81;22252;-83
2022/10/24 08:57:54;;;;;;;32.58;28.17;;;;;;;13.89;84.16;100877.02;1755018;80;20974;-83
2022/10/24 09:00:27;;;;;;;34.60;29.02;;;;;;;13.94;83.97;100884.56;1754062;81;21033;-83
2022/10/24 09:03:25;;;;;;;34.18;30.40;;;;;;;14.04;84.14;100887.33;1755077;81;20977;-83
2022/10/24 09:05:54;;;;;;;36.48;29.70;;;;;;;14.07;83.92;100883.41;1755000;81;22493;-83
2022/10/24 09:08:41;;;;;;;37.33;31.57;;;;;;;14.07;83.54;100885.62;1755056;81;21000;-84
2022/10/24 09:11:13;;;;;;;43.65;35.70;;;;;;;14.08;83.64;100885.20;1754848;81;21004;-83
2022/10/24 09:13:41;;;;;;;;;;;;;;;14.11;83.58;100886.10;1737428;81;21000;-83
2022/10/24 09:16:13;;;;;;;57.33;50.35;;;;;;;14.13;83.36;100889.69;1755367;81;20177;-83
2022/10/24 09:18:41;;;;;;;57.23;48.83;;;;;;;14.15;83.40;100889.68;1755389;80;22741;-83
2022/10/24 09:21:08;;;;;;;52.80;47.20;;;;;;;14.17;83.39;100891.50;1754280;81;20972;-83
2022/10/24 09:23:35;;;;;;;57.15;49.30;;;;;;;14.24;83.43;100895.09;1738000;82;21076;-83
2022/10/24 09:26:04;;;;;;;46.55;41.45;;;;;;;14.31;83.50;100892.09;1760415;81;21065;-83
2022/10/24 09:28:33;;;;;;;40.25;35.58;;;;;;;14.41;83.43;100886.47;1763649;81;21331;-83
2022/10/24 09:31:15;;;;;;;39.73;34.85;;;;;;;14.43;83.07;100888.70;1765350;80;21739;-83
2022/10/24 09:33:42;;;;;;;33.10;29.48;;;;;;;14.46;83.15;100883.45;1764166;80;21113;-83
2022/10/24 09:36:11;;;;;;;38.95;30.27;;;;;;;14.52;83.14;100888.80;1763805;81;21073;-82
2022/10/24 09:38:40;;;;;;;34.92;29.72;;;;;;;14.65;83.27;100893.84;1765300;81;21026;-83
2022/10/24 09:41:25;;;;;;;34.00;28.62;;;;;;;14.74;83.06;100900.56;1765415;81;21057;-83
2022/10/24 09:44:00;;;;;;;30.70;27.42;;;;;;;14.77;82.95;100904.55;1765461;79;22524;-83
2022/10/24 09:46:35;;;;;;;30.15;26.85;;;;;;;14.80;82.82;100907.69;1764998;81;21006;-83
2022/10/24 09:49:21;;;;;;;32.35;26.50;;;;;;;14.77;82.15;100909.43;1765370;79;21552;-83
2022/10/24 09:52:20;;;;;;;31.17;26.02;;;;;;;14.74;82.14;100908.51;1765457;79;20975;-84
2022/10/24 09:55:07;;;;;;;31.20;26.40;;;;;;;14.73;82.20;100906.72;1764262;81;21057;-83
2022/10/24 09:57:39;;;;;;;32.05;27.25;;;;;;;14.74;82.11;100910.71;1746424;80;21778;-83
2022/10/24 10:00:22;;;;;;;32.53;27.90;;;;;;;14.76;82.17;100904.98;1763705;81;21074;-83
2022/10/24 10:03:08;;;;;;;32.20;28.60;;;;;;;14.81;82.01;100911.68;1746660;81;21432;-83
2022/10/24 10:05:57;;;;;;;32.45;27.67;;;;;;;14.85;82.03;100908.18;1752876;80;21482;-83
2022/10/24 10:08:30;;;;;;;33.58;26.55;;;;;;;14.87;81.94;100910.41;1733829;81;21031;-83
2022/10/24 10:11:06;;;;;;;30.90;27.60;;;;;;;14.87;81.73;100921.01;1754190;81;21808;-83
2022/10/24 10:13:48;;;;;;;35.58;31.00;;;;;;;14.83;81.67;100913.91;1753331;81;21047;-83
2022/10/24 10:16:21;;;;;;;43.00;31.42;;;;;;;14.82;81.66;100902.84;1752884;81;21039;-84
2022/10/24 10:18:48;;;;;;;35.58;30.77;;;;;;;14.86;81.74;100901.11;1747918;81;21059;-83
2022/10/24 10:21:22;;;;;;;32.53;29.00;;;;;;;14.91;81.85;100900.28;1756455;81;20985;-84
2022/10/24 10:23:53;;;;;;;36.10;29.63;;;;;;;15.06;82.06;100880.98;1740884;82;21733;-83
2022/10/24 10:26:27;;;;;;;36.73;30.30;;;;;;;15.29;82.12;100866.57;1740964;81;20994;-83
2022/10/24 10:29:03;;;;;;;35.63;30.57;;;;;;;15.51;81.90;100871.59;1739510;82;21053;-84
2022/10/24 10:31:59;;;;;;;33.98;30.27;;;;;;;15.69;81.67;100870.84;1740503;82;20992;-84
2022/10/24 10:34:54;;;;;;;35.25;29.95;;;;;;;15.83;81.34;100864.30;1716591;82;21614;-84
2022/10/24 10:37:34;;;;;;;33.55;28.95;;;;;;;16.02;81.17;100861.74;1740640;81;21817;-83
2022/10/24 10:40:29;;;;;;;34.90;31.00;;;;;;;16.12;80.75;100864.45;1740811;81;21025;-84
2022/10/24 10:43:22;;;;;;;34.70;30.80;;;;;;;16.13;80.36;100864.88;1739451;82;21002;-84
2022/10/24 10:46:19;;;;;;;36.95;31.35;;;;;;;16.28;80.54;100863.17;1748579;81;20989;-84
2022/10/24 10:49:15;;;;;;;32.67;29.02;;;;;;;16.46;80.43;100862.32;1749953;81;20984;-84
2022/10/24 10:51:51;;;;;;;32.10;28.67;;;;;;;16.58;80.00;100853.06;1752681;81;22053;-84
2022/10/24 10:54:41;;;;;;;36.28;29.00;;;;;;;16.65;79.72;100859.30;1752694;81;21083;-84
2022/10/24 10:57:18;;;;;;;33.08;28.45;;;;;;;16.71;79.59;100844.67;1757151;81;21056;-83
2022/10/24 10:59:57;;;;;;;31.20;27.82;;;;;;;16.76;79.28;100840.68;1753897;81;22053;-83
2022/10/24 11:03:02;;;;;;;34.78;29.10;;;;;;;16.80;79.15;100830.48;1754474;81;21072;-84
2022/10/24 11:05:46;;;;;;;37.20;30.25;;;;;;;16.81;78.96;100822.52;1753111;80;21732;-84
2022/10/24 11:08:33;;;;;;;38.60;30.68;;;;;;;16.85;78.76;100822.11;1751369;81;21073;-84
2022/10/24 11:11:03;;;;;;;32.23;28.70;;;;;;;16.80;78.40;100819.85;1758988;80;21077;-83
2022/10/24 11:13:37;;;;;;;33.23;29.63;;;;;;;16.81;78.59;100814.55;1753527;80;21141;-84
2022/10/24 11:16:08;;;;;;;33.00;29.10;;;;;;;16.88;78.66;100811.04;1743813;80;21057;-83
2022/10/24 11:18:38;;;;;;;34.83;30.32;;;;;;;16.97;78.53;100810.58;1750242;80;23378;-83
2022/10/24 11:21:12;;;;;;;33.73;29.48;;;;;;;16.97;78.19;100806.17;1765509;79;21037;-83
2022/10/24 11:23:55;;;;;;;35.38;29.27;;;;;;;17.06;78.49;100809.25;1703822;81;21417;-83
2022/10/24 11:26:33;;;;;;;32.45;28.70;;;;;;;17.18;78.37;100813.70;1710428;83;21499;-83
2022/10/24 11:29:22;;;;;;;30.90;27.48;;;;;;;17.30;78.24;100820.31;1715703;81;21108;-83
2022/10/24 11:32:06;;;;;;;33.60;27.93;;;;;;;17.33;77.91;100820.77;1699178;81;21847;-83
2022/10/24 11:34:46;;;;;;;32.80;28.67;;;;;;;17.36;77.78;100827.39;1668308;81;21127;-83